Prudhoe Bay, AK (99734)

9:08 PM AKDT on August 28, 2014 (GMT -0800)
Deadhorse | Change Station
CLOSE
Current Station
Airport
Location: Deadhorse,
Elevation: 59 ft
Nearby Weather Stations

Elev 59 ft 70.19 °N, 148.47 °W | Updated 15 minutes ago

Overcast
Overcast
38 °F
Feels Like 30 °F
N
12
Wind Variable Wind from North

Today
High -- | Low -- °F
--% Chance of Precip.
Yesterday
High -- | Low -- °F
Precip. -- in
5:54 AM 9:55 PM
Waxing Crescent, 12% visible
Pressure 29.57 in
Visibility 10.0 miles
Clouds Overcast 1000 ft
Windchill 30 °F
Dew Point 34 °F
Humidity 86%
Rainfall 0.00 in
Snow Depth Not available.
UV 0 out of 12
Pollen Not available.
Air Quality Not available.
Flu Activity Not available.
METAR PASC 290453Z 35010KT 10SM OVC010 03/01 A2956 RMK AO2 RAE0357 CIG 007V015 SLP011 P0000 T00330011

More Conditions Fewer Conditions

Pressure 29.57 in
Visibility 10.0 miles
Clouds Overcast 1000 ft
Windchill 30 °F
Dew Point 34 °F
Humidity 86%
Rainfall 0.00 in
Snow Depth Not available.
UV 0 out of 12
Pollen Not available.
Air Quality Not available.
Flu Activity Not available.
METAR PASC 290453Z 35010KT 10SM OVC010 03/01 A2956 RMK AO2 RAE0357 CIG 007V015 SLP011 P0000 T00330011

More Conditions Fewer Conditions

10-Day Weather Forecast

Almanac

Astronomy

Aug. 28, 2014 Rise Set
Actual Time 5:54 AM AKDT 9:55 PM AKDT
Civil Twilight 4:32 AM AKDT 11:15 PM AKDT
Nautical Twilight 2:29 AM AKDT 1:24 AM AKDT
Astronomical Twilight Sun does not rise Sun does not rise
Moon 11:02 AM AKDT (8/28) 9:09 PM AKDT (8/28)
Length of Visible Light 18h 42m
Length of Day
16h 01m
Tomorrow will be 9m 16s shorter.
Waxing Crescent, 12% of the Moon is Illuminated
Aug 29
Waxing Crescent
Sep 2
First Quarter
Sep 8
Full
Sep 15
Last Quarter
Sep 24
New

Yesterday's Extremes

State Highs State Lows

Community

WunderPhotos

Upload Photos

1,748,192 photos uploaded!

Nearby

Snow Depth

Station Depth Elevation
Imnaviat Creek 0 in 3050 ft
Atigun Pass 0 in 4800 ft
Coldfoot 0 in 1040 ft
Gobblers Knob 0 in 2030 ft
Fort Yukon 1 in 430 ft

Earthquake Activity

City Distance Mag. Time & Date
No recent earthquake activity has been reported nearby.
Minimum magnitude displayed is 2.5.

Coastal Water Temperatures

Place Temperature
No Stations Reporting

Nearby Weather Stations